sensor_id;sensor_type;location;lat;lon;timestamp;pressure;altitude;pressure_sealevel;temperature;humidity
56582;BME280;42463;52.214;21.238;2023-01-26T00:01:13;101283.08;;;2.32;67.64
56582;BME280;42463;52.214;21.238;2023-01-26T00:03:39;101280.23;;;2.32;67.71
56582;BME280;42463;52.214;21.238;2023-01-26T00:06:09;101286.16;;;2.35;67.82
56582;BME280;42463;52.214;21.238;2023-01-26T00:08:38;101287.36;;;2.37;67.68
56582;BME280;42463;52.214;21.238;2023-01-26T00:11:10;101288.02;;;2.40;67.88
56582;BME280;42463;52.214;21.238;2023-01-26T00:13:41;101288.20;;;2.45;67.73
56582;BME280;42463;52.214;21.238;2023-01-26T00:16:09;101284.58;;;2.48;67.74
56582;BME280;42463;52.214;21.238;2023-01-26T00:18:37;101273.84;;;2.48;67.43
56582;BME280;42463;52.214;21.238;2023-01-26T00:21:03;101276.09;;;2.46;67.39
56582;BME280;42463;52.214;21.238;2023-01-26T00:23:29;101277.35;;;2.44;67.49
56582;BME280;42463;52.214;21.238;2023-01-26T00:25:55;101283.02;;;2.48;67.69
56582;BME280;42463;52.214;21.238;2023-01-26T00:28:21;101269.31;;;2.49;67.43
56582;BME280;42463;52.214;21.238;2023-01-26T00:30:46;101266.65;;;2.47;67.23
56582;BME280;42463;52.214;21.238;2023-01-26T00:33:14;101267.88;;;2.44;67.31
56582;BME280;42463;52.214;21.238;2023-01-26T00:35:39;101265.77;;;2.44;67.66
56582;BME280;42463;52.214;21.238;2023-01-26T00:38:09;101268.05;;;2.44;67.22
56582;BME280;42463;52.214;21.238;2023-01-26T00:40:34;101270.23;;;2.46;67.63
56582;BME280;42463;52.214;21.238;2023-01-26T00:43:01;101268.14;;;2.45;67.64
56582;BME280;42463;52.214;21.238;2023-01-26T00:45:26;101265.19;;;2.46;67.60
56582;BME280;42463;52.214;21.238;2023-01-26T00:48:12;101260.09;;;2.47;67.62
56582;BME280;42463;52.214;21.238;2023-01-26T00:50:37;101258.19;;;2.46;67.61
56582;BME280;42463;52.214;21.238;2023-01-26T00:53:09;101253.94;;;2.46;67.56
56582;BME280;42463;52.214;21.238;2023-01-26T00:55:34;101253.53;;;2.46;67.61
56582;BME280;42463;52.214;21.238;2023-01-26T00:58:01;101256.71;;;2.47;67.63
56582;BME280;42463;52.214;21.238;2023-01-26T01:00:27;101251.73;;;2.45;67.62
56582;BME280;42463;52.214;21.238;2023-01-26T01:02:55;101244.56;;;2.42;67.73
56582;BME280;42463;52.214;21.238;2023-01-26T01:05:21;101251.27;;;2.40;67.64
56582;BME280;42463;52.214;21.238;2023-01-26T01:07:47;101252.15;;;2.40;67.88
56582;BME280;42463;52.214;21.238;2023-01-26T01:10:15;101254.36;;;2.42;68.09
56582;BME280;42463;52.214;21.238;2023-01-26T01:12:44;101249.50;;;2.44;68.09
56582;BME280;42463;52.214;21.238;2023-01-26T01:15:10;101243.24;;;2.44;67.95
56582;BME280;42463;52.214;21.238;2023-01-26T01:17:36;101238.39;;;2.44;67.81
56582;BME280;42463;52.214;21.238;2023-01-26T01:20:13;101236.52;;;2.44;67.80
56582;BME280;42463;52.214;21.238;2023-01-26T01:22:39;101238.79;;;2.44;67.82
56582;BME280;42463;52.214;21.238;2023-01-26T01:25:08;101230.73;;;2.43;67.85
56582;BME280;42463;52.214;21.238;2023-01-26T01:27:36;101233.27;;;2.44;67.77
56582;BME280;42463;52.214;21.238;2023-01-26T01:30:06;101226.15;;;2.45;67.89
56582;BME280;42463;52.214;21.238;2023-01-26T01:32:32;101219.36;;;2.45;67.71
56582;BME280;42463;52.214;21.238;2023-01-26T01:34:58;101208.05;;;2.39;67.62
56582;BME280;42463;52.214;21.238;2023-01-26T01:37:24;101210.93;;;2.41;67.88
56582;BME280;42463;52.214;21.238;2023-01-26T01:39:53;101209.17;;;2.44;68.11
56582;BME280;42463;52.214;21.238;2023-01-26T01:42:21;101206.02;;;2.45;67.88
56582;BME280;42463;52.214;21.238;2023-01-26T01:45:31;101199.56;;;2.44;67.86
56582;BME280;42463;52.214;21.238;2023-01-26T01:48:12;101200.19;;;2.47;67.93
56582;BME280;42463;52.214;21.238;2023-01-26T01:50:43;101196.39;;;2.47;67.70
56582;BME280;42463;52.214;21.238;2023-01-26T01:53:13;101192.31;;;2.43;67.76
56582;BME280;42463;52.214;21.238;2023-01-26T01:55:42;101190.41;;;2.43;68.13
56582;BME280;42463;52.214;21.238;2023-01-26T01:58:10;101194.09;;;2.46;68.05
56582;BME280;42463;52.214;21.238;2023-01-26T02:04:10;101182.23;;;2.46;67.91
56582;BME280;42463;52.214;21.238;2023-01-26T02:06:39;101179.59;;;2.47;68.20
56582;BME280;42463;52.214;21.238;2023-01-26T02:09:10;101176.65;;;2.49;68.20
56582;BME280;42463;52.214;21.238;2023-01-26T02:12:02;101171.61;;;2.48;68.15
56582;BME280;42463;52.214;21.238;2023-01-26T02:14:32;101174.24;;;2.45;68.03
56582;BME280;42463;52.214;21.238;2023-01-26T02:16:57;101170.91;;;2.45;68.04
56582;BME280;42463;52.214;21.238;2023-01-26T02:19:30;101164.48;;;2.46;68.25
56582;BME280;42463;52.214;21.238;2023-01-26T02:22:30;101165.80;;;2.47;68.13
56582;BME280;42463;52.214;21.238;2023-01-26T02:25:00;101161.17;;;2.47;68.13
56582;BME280;42463;52.214;21.238;2023-01-26T02:27:31;101161.88;;;2.47;68.32
56582;BME280;42463;52.214;21.238;2023-01-26T02:29:58;101157.10;;;2.45;67.95
56582;BME280;42463;52.214;21.238;2023-01-26T02:32:25;101161.42;;;2.45;68.11
56582;BME280;42463;52.214;21.238;2023-01-26T02:34:57;101152.84;;;2.44;67.96
56582;BME280;42463;52.214;21.238;2023-01-26T02:37:22;101151.98;;;2.42;68.10
56582;BME280;42463;52.214;21.238;2023-01-26T02:39:54;101145.21;;;2.40;68.17
56582;BME280;42463;52.214;21.238;2023-01-26T02:42:21;101143.96;;;2.42;68.31
56582;BME280;42463;52.214;21.238;2023-01-26T02:45:18;101141.08;;;2.42;67.93
56582;BME280;42463;52.214;21.238;2023-01-26T02:47:47;101140.29;;;2.37;67.93
56582;BME280;42463;52.214;21.238;2023-01-26T02:50:17;101134.45;;;2.35;68.33
56582;BME280;42463;52.214;21.238;2023-01-26T02:52:43;101133.04;;;2.33;68.16
56582;BME280;42463;52.214;21.238;2023-01-26T02:55:18;101129.77;;;2.26;68.35
56582;BME280;42463;52.214;21.238;2023-01-26T02:57:52;101133.63;;;2.23;68.57
56582;BME280;42463;52.214;21.238;2023-01-26T03:00:21;101129.15;;;2.27;68.79
56582;BME280;42463;52.214;21.238;2023-01-26T03:02:52;101122.80;;;2.29;68.48
56582;BME280;42463;52.214;21.238;2023-01-26T03:05:39;101118.02;;;2.29;68.55
56582;BME280;42463;52.214;21.238;2023-01-26T03:08:05;101119.05;;;2.32;68.92
56582;BME280;42463;52.214;21.238;2023-01-26T03:10:34;101118.29;;;2.35;68.76
56582;BME280;42463;52.214;21.238;2023-01-26T03:13:00;101116.44;;;2.39;68.82
56582;BME280;42463;52.214;21.238;2023-01-26T03:15:29;101114.00;;;2.41;68.74
56582;BME280;42463;52.214;21.238;2023-01-26T03:18:14;101106.32;;;2.43;68.57
56582;BME280;42463;52.214;21.238;2023-01-26T03:20:54;101106.06;;;2.45;68.56
56582;BME280;42463;52.214;21.238;2023-01-26T03:23:47;101103.75;;;2.48;68.57
56582;BME280;42463;52.214;21.238;2023-01-26T03:26:31;101094.18;;;2.47;68.57
56582;BME280;42463;52.214;21.238;2023-01-26T03:29:27;101090.35;;;2.47;68.37
56582;BME280;42463;52.214;21.238;2023-01-26T03:31:54;101082.37;;;2.48;68.51
56582;BME280;42463;52.214;21.238;2023-01-26T03:34:22;101084.60;;;2.48;68.44
56582;BME280;42463;52.214;21.238;2023-01-26T03:36:48;101085.14;;;2.48;68.42
56582;BME280;42463;52.214;21.238;2023-01-26T03:39:14;101085.89;;;2.46;68.42
56582;BME280;42463;52.214;21.238;2023-01-26T03:41:54;101086.63;;;2.46;68.47
56582;BME280;42463;52.214;21.238;2023-01-26T03:44:40;101083.50;;;2.46;68.50
56582;BME280;42463;52.214;21.238;2023-01-26T03:47:24;101082.50;;;2.45;68.58
56582;BME280;42463;52.214;21.238;2023-01-26T03:50:10;101085.95;;;2.48;68.69
56582;BME280;42463;52.214;21.238;2023-01-26T03:53:03;101089.16;;;2.50;68.71
56582;BME280;42463;52.214;21.238;2023-01-26T03:56:08;101082.35;;;2.52;68.67
56582;BME280;42463;52.214;21.238;2023-01-26T03:58:45;101080.77;;;2.53;68.64
56582;BME280;42463;52.214;21.238;2023-01-26T04:01:11;101076.56;;;2.57;68.54
56582;BME280;42463;52.214;21.238;2023-01-26T04:03:54;101071.98;;;2.57;68.28
56582;BME280;42463;52.214;21.238;2023-01-26T04:06:46;101072.66;;;2.55;68.30
56582;BME280;42463;52.214;21.238;2023-01-26T04:09:31;101066.20;;;2.53;68.36
56582;BME280;42463;52.214;21.238;2023-01-26T04:11:57;101063.84;;;2.52;68.43
56582;BME280;42463;52.214;21.238;2023-01-26T04:14:23;101066.48;;;2.52;68.41
56582;BME280;42463;52.214;21.238;2023-01-26T04:17:06;101062.83;;;2.49;68.33
56582;BME280;42463;52.214;21.238;2023-01-26T04:19:49;101054.34;;;2.49;68.74
56582;BME280;42463;52.214;21.238;2023-01-26T04:22:37;101053.39;;;2.47;68.58
56582;BME280;42463;52.214;21.238;2023-01-26T04:25:07;101053.98;;;2.42;68.67
56582;BME280;42463;52.214;21.238;2023-01-26T04:27:33;101056.22;;;2.42;68.91
56582;BME280;42463;52.214;21.238;2023-01-26T04:30:04;101051.42;;;2.44;68.82
56582;BME280;42463;52.214;21.238;2023-01-26T04:32:30;101050.62;;;2.46;68.98
56582;BME280;42463;52.214;21.238;2023-01-26T04:34:55;101054.27;;;2.45;68.82
56582;BME280;42463;52.214;21.238;2023-01-26T04:37:22;101055.73;;;2.43;68.95
56582;BME280;42463;52.214;21.238;2023-01-26T04:39:56;101065.65;;;2.46;68.83
56582;BME280;42463;52.214;21.238;2023-01-26T04:42:21;101062.92;;;2.47;68.91
56582;BME280;42463;52.214;21.238;2023-01-26T04:44:50;101065.13;;;2.50;68.84
56582;BME280;42463;52.214;21.238;2023-01-26T04:47:19;101067.13;;;2.51;68.90
56582;BME280;42463;52.214;21.238;2023-01-26T04:49:54;101065.21;;;2.49;68.68
56582;BME280;42463;52.214;21.238;2023-01-26T04:52:21;101065.84;;;2.47;68.74
56582;BME280;42463;52.214;21.238;2023-01-26T04:54:48;101065.83;;;2.46;68.88
56582;BME280;42463;52.214;21.238;2023-01-26T04:57:14;101064.03;;;2.47;69.01
56582;BME280;42463;52.214;21.238;2023-01-26T04:59:46;101059.05;;;2.48;69.01
56582;BME280;42463;52.214;21.238;2023-01-26T05:02:11;101051.85;;;2.49;68.64
56582;BME280;42463;52.214;21.238;2023-01-26T05:04:37;101054.42;;;2.50;68.73
56582;BME280;42463;52.214;21.238;2023-01-26T05:07:05;101054.16;;;2.49;68.83
56582;BME280;42463;52.214;21.238;2023-01-26T05:09:34;101050.83;;;2.53;68.91
56582;BME280;42463;52.214;21.238;2023-01-26T05:12:28;101051.03;;;2.59;68.98
56582;BME280;42463;52.214;21.238;2023-01-26T05:15:26;101048.00;;;2.60;68.65
56582;BME280;42463;52.214;21.238;2023-01-26T05:18:01;101033.38;;;2.50;68.30
56582;BME280;42463;52.214;21.238;2023-01-26T05:21:05;101047.70;;;2.55;68.37
56582;BME280;42463;52.214;21.238;2023-01-26T05:23:39;101046.99;;;2.55;68.74
56582;BME280;42463;52.214;21.238;2023-01-26T05:26:23;101044.33;;;2.56;68.60
56582;BME280;42463;52.214;21.238;2023-01-26T05:29:12;101043.26;;;2.56;68.40
56582;BME280;42463;52.214;21.238;2023-01-26T05:31:37;101046.06;;;2.57;68.62
56582;BME280;42463;52.214;21.238;2023-01-26T05:34:03;101048.45;;;2.56;68.57
56582;BME280;42463;52.214;21.238;2023-01-26T05:36:34;101044.61;;;2.55;68.59
56582;BME280;42463;52.214;21.238;2023-01-26T05:39:19;101045.86;;;2.57;68.72
56582;BME280;42463;52.214;21.238;2023-01-26T05:41:45;101043.83;;;2.59;68.94
56582;BME280;42463;52.214;21.238;2023-01-26T05:44:30;101046.06;;;2.60;68.89
56582;BME280;42463;52.214;21.238;2023-01-26T05:47:02;101045.99;;;2.57;68.59
56582;BME280;42463;52.214;21.238;2023-01-26T05:49:28;101048.20;;;2.57;68.67
56582;BME280;42463;52.214;21.238;2023-01-26T05:51:52;101047.19;;;2.58;68.91
56582;BME280;42463;52.214;21.238;2023-01-26T05:54:18;101042.79;;;2.59;68.89
56582;BME280;42463;52.214;21.238;2023-01-26T05:56:46;101040.17;;;2.60;68.79
56582;BME280;42463;52.214;21.238;2023-01-26T05:59:12;101042.13;;;2.59;68.63
56582;BME280;42463;52.214;21.238;2023-01-26T06:01:37;101035.34;;;2.53;68.72
56582;BME280;42463;52.214;21.238;2023-01-26T06:04:05;101039.84;;;2.56;68.66
56582;BME280;42463;52.214;21.238;2023-01-26T06:06:40;101041.70;;;2.58;68.94
56582;BME280;42463;52.214;21.238;2023-01-26T06:09:28;101042.00;;;2.58;68.87
56582;BME280;42463;52.214;21.238;2023-01-26T06:11:56;101047.52;;;2.58;68.74
56582;BME280;42463;52.214;21.238;2023-01-26T06:14:29;101048.10;;;2.58;68.64
56582;BME280;42463;52.214;21.238;2023-01-26T06:16:54;101050.73;;;2.58;68.88
56582;BME280;42463;52.214;21.238;2023-01-26T06:19:23;101049.59;;;2.59;68.71
56582;BME280;42463;52.214;21.238;2023-01-26T06:22:01;101050.66;;;2.59;68.94
56582;BME280;42463;52.214;21.238;2023-01-26T06:24:28;101047.21;;;2.59;68.63
56582;BME280;42463;52.214;21.238;2023-01-26T06:26:56;101049.13;;;2.58;68.77
56582;BME280;42463;52.214;21.238;2023-01-26T06:29:26;101050.11;;;2.57;68.85
56582;BME280;42463;52.214;21.238;2023-01-26T06:31:57;101050.59;;;2.59;68.92
56582;BME280;42463;52.214;21.238;2023-01-26T06:34:37;101052.24;;;2.61;68.69
56582;BME280;42463;52.214;21.238;2023-01-26T06:37:23;101050.65;;;2.61;68.88
56582;BME280;42463;52.214;21.238;2023-01-26T06:39:50;101048.92;;;2.61;68.72
56582;BME280;42463;52.214;21.238;2023-01-26T06:42:25;101047.02;;;2.61;68.65
56582;BME280;42463;52.214;21.238;2023-01-26T06:44:53;101040.22;;;2.61;68.91
56582;BME280;42463;52.214;21.238;2023-01-26T06:47:45;101044.60;;;2.62;68.77
56582;BME280;42463;52.214;21.238;2023-01-26T06:50:12;101040.96;;;2.61;68.75
56582;BME280;42463;52.214;21.238;2023-01-26T06:52:41;101041.33;;;2.61;68.66
56582;BME280;42463;52.214;21.238;2023-01-26T06:55:36;101042.30;;;2.61;69.00
56582;BME280;42463;52.214;21.238;2023-01-26T06:58:24;101043.10;;;2.64;68.85
56582;BME280;42463;52.214;21.238;2023-01-26T07:01:27;101038.20;;;2.64;68.73
56582;BME280;42463;52.214;21.238;2023-01-26T07:04:12;101040.64;;;2.65;68.67
56582;BME280;42463;52.214;21.238;2023-01-26T07:07:09;101037.67;;;2.64;68.75
56582;BME280;42463;52.214;21.238;2023-01-26T07:09:37;101035.88;;;2.66;68.73
56582;BME280;42463;52.214;21.238;2023-01-26T07:12:14;101035.54;;;2.66;68.58
56582;BME280;42463;52.214;21.238;2023-01-26T07:14:43;101036.83;;;2.65;68.50
56582;BME280;42463;52.214;21.238;2023-01-26T07:17:08;101036.86;;;2.65;68.47
56582;BME280;42463;52.214;21.238;2023-01-26T07:19:36;101035.96;;;2.64;68.36
56582;BME280;42463;52.214;21.238;2023-01-26T07:22:02;101031.81;;;2.64;68.38
56582;BME280;42463;52.214;21.238;2023-01-26T07:24:48;101025.19;;;2.61;68.33
56582;BME280;42463;52.214;21.238;2023-01-26T07:27:33;101027.14;;;2.55;67.97
56582;BME280;42463;52.214;21.238;2023-01-26T07:29:58;101020.86;;;2.51;67.51
56582;BME280;42463;52.214;21.238;2023-01-26T07:32:23;101020.53;;;2.48;67.80
56582;BME280;42463;52.214;21.238;2023-01-26T07:34:48;101019.63;;;2.45;67.48
56582;BME280;42463;52.214;21.238;2023-01-26T07:37:20;101018.23;;;2.45;67.44
56582;BME280;42463;52.214;21.238;2023-01-26T07:39:58;101013.33;;;2.44;67.42
56582;BME280;42463;52.214;21.238;2023-01-26T07:42:23;101013.64;;;2.40;67.07
56582;BME280;42463;52.214;21.238;2023-01-26T07:45:07;101019.98;;;2.43;67.27
56582;BME280;42463;52.214;21.238;2023-01-26T07:47:45;101019.80;;;2.45;67.06
56582;BME280;42463;52.214;21.238;2023-01-26T07:50:14;101018.27;;;2.45;67.14
56582;BME280;42463;52.214;21.238;2023-01-26T07:53:01;101014.31;;;2.48;67.24
56582;BME280;42463;52.214;21.238;2023-01-26T07:55:29;101017.60;;;2.47;67.18
56582;BME280;42463;52.214;21.238;2023-01-26T07:57:54;101013.48;;;2.43;67.04
56582;BME280;42463;52.214;21.238;2023-01-26T08:00:22;101021.52;;;2.44;67.35
56582;BME280;42463;52.214;21.238;2023-01-26T08:03:02;101018.46;;;2.45;67.42
56582;BME280;42463;52.214;21.238;2023-01-26T08:05:28;101020.44;;;2.47;67.68
56582;BME280;42463;52.214;21.238;2023-01-26T08:08:00;101013.03;;;2.51;67.71
56582;BME280;42463;52.214;21.238;2023-01-26T08:10:29;101008.48;;;2.53;67.64
56582;BME280;42463;52.214;21.238;2023-01-26T08:12:56;101008.74;;;2.57;67.53
56582;BME280;42463;52.214;21.238;2023-01-26T08:15:25;101011.15;;;2.62;67.55
56582;BME280;42463;52.214;21.238;2023-01-26T08:17:50;101009.34;;;2.62;67.25
56582;BME280;42463;52.214;21.238;2023-01-26T08:20:17;101008.09;;;2.62;67.12
56582;BME280;42463;52.214;21.238;2023-01-26T08:22:47;101001.42;;;2.58;66.63
56582;BME280;42463;52.214;21.238;2023-01-26T08:25:12;100990.15;;;2.53;66.06
56582;BME280;42463;52.214;21.238;2023-01-26T08:27:38;100994.46;;;2.42;65.80
56582;BME280;42463;52.214;21.238;2023-01-26T08:30:05;100996.78;;;2.37;65.71
56582;BME280;42463;52.214;21.238;2023-01-26T08:32:41;100997.16;;;2.34;65.91
56582;BME280;42463;52.214;21.238;2023-01-26T08:35:08;100998.52;;;2.34;65.95
56582;BME280;42463;52.214;21.238;2023-01-26T08:37:35;100994.95;;;2.34;65.76
56582;BME280;42463;52.214;21.238;2023-01-26T08:42:48;100996.54;;;2.40;65.83
56582;BME280;42463;52.214;21.238;2023-01-26T08:45:27;101003.42;;;2.41;64.95
56582;BME280;42463;52.214;21.238;2023-01-26T08:48:41;101002.91;;;2.36;65.37
56582;BME280;42463;52.214;21.238;2023-01-26T08:51:18;101000.95;;;2.35;64.79
56582;BME280;42463;52.214;21.238;2023-01-26T08:53:48;101007.32;;;2.30;64.60
56582;BME280;42463;52.214;21.238;2023-01-26T08:56:33;101009.29;;;2.32;65.10
56582;BME280;42463;52.214;21.238;2023-01-26T08:59:03;101017.30;;;2.43;65.48
56582;BME280;42463;52.214;21.238;2023-01-26T09:01:31;101025.71;;;2.51;64.74
56582;BME280;42463;52.214;21.238;2023-01-26T09:04:19;101027.14;;;2.49;64.26
56582;BME280;42463;52.214;21.238;2023-01-26T09:07:04;101025.74;;;2.49;64.19
56582;BME280;42463;52.214;21.238;2023-01-26T09:09:41;101025.41;;;2.46;63.62
56582;BME280;42463;52.214;21.238;2023-01-26T09:12:19;101024.69;;;2.45;63.71
56582;BME280;42463;52.214;21.238;2023-01-26T09:14:54;101024.31;;;2.41;63.95
56582;BME280;42463;52.214;21.238;2023-01-26T09:17:31;101025.69;;;2.35;63.35
56582;BME280;42463;52.214;21.238;2023-01-26T09:19:57;101033.16;;;2.31;63.54
56582;BME280;42463;52.214;21.238;2023-01-26T09:22:45;101034.69;;;2.27;63.85
56582;BME280;42463;52.214;21.238;2023-01-26T09:25:27;101036.03;;;2.30;64.14
56582;BME280;42463;52.214;21.238;2023-01-26T09:28:00;101033.62;;;2.29;63.72
56582;BME280;42463;52.214;21.238;2023-01-26T09:30:41;101030.27;;;2.30;64.11
56582;BME280;42463;52.214;21.238;2023-01-26T09:33:20;101030.45;;;2.31;64.02
56582;BME280;42463;52.214;21.238;2023-01-26T09:35:51;101031.91;;;2.37;64.31
56582;BME280;42463;52.214;21.238;2023-01-26T09:38:36;101026.21;;;2.41;64.08
56582;BME280;42463;52.214;21.238;2023-01-26T09:41:17;101021.08;;;2.45;63.98
56582;BME280;42463;52.214;21.238;2023-01-26T09:43:51;101017.58;;;2.49;63.62
56582;BME280;42463;52.214;21.238;2023-01-26T09:46:31;101017.35;;;2.38;63.04
56582;BME280;42463;52.214;21.238;2023-01-26T09:49:07;101014.77;;;2.35;63.72
56582;BME280;42463;52.214;21.238;2023-01-26T09:52:01;101011.56;;;2.37;63.83
56582;BME280;42463;52.214;21.238;2023-01-26T09:54:33;101005.14;;;2.43;63.84
56582;BME280;42463;52.214;21.238;2023-01-26T09:57:08;101007.75;;;2.47;63.49
56582;BME280;42463;52.214;21.238;2023-01-26T09:59:52;101006.67;;;2.53;63.40
56582;BME280;42463;52.214;21.238;2023-01-26T10:02:38;101001.08;;;2.61;63.50
56582;BME280;42463;52.214;21.238;2023-01-26T10:05:17;100996.46;;;2.65;63.14
56582;BME280;42463;52.214;21.238;2023-01-26T10:07:51;100993.25;;;2.64;62.74
56582;BME280;42463;52.214;21.238;2023-01-26T10:10:22;100991.95;;;2.59;62.94
56582;BME280;42463;52.214;21.238;2023-01-26T10:13:02;100989.27;;;2.55;63.24
56582;BME280;42463;52.214;21.238;2023-01-26T10:15:33;100991.14;;;2.49;62.77
56582;BME280;42463;52.214;21.238;2023-01-26T10:18:07;100990.06;;;2.46;62.81
56582;BME280;42463;52.214;21.238;2023-01-26T10:20:38;100984.93;;;2.44;62.66
56582;BME280;42463;52.214;21.238;2023-01-26T10:23:10;100983.58;;;2.48;62.85
56582;BME280;42463;52.214;21.238;2023-01-26T10:25:40;100981.80;;;2.51;62.79
56582;BME280;42463;52.214;21.238;2023-01-26T10:28:14;100976.53;;;2.51;62.71
56582;BME280;42463;52.214;21.238;2023-01-26T10:31:14;100966.73;;;2.51;62.01
56582;BME280;42463;52.214;21.238;2023-01-26T10:33:45;100962.27;;;2.50;62.27
56582;BME280;42463;52.214;21.238;2023-01-26T10:36:26;100963.50;;;2.50;62.57
56582;BME280;42463;52.214;21.238;2023-01-26T10:39:06;100962.64;;;2.57;63.14
56582;BME280;42463;52.214;21.238;2023-01-26T10:41:38;100956.73;;;2.64;62.80
56582;BME280;42463;52.214;21.238;2023-01-26T10:44:19;100958.02;;;2.64;62.67
56582;BME280;42463;52.214;21.238;2023-01-26T10:46:45;100959.85;;;2.67;62.71
56582;BME280;42463;52.214;21.238;2023-01-26T10:49:16;100957.75;;;2.71;62.58
56582;BME280;42463;52.214;21.238;2023-01-26T10:54:28;100948.41;;;2.68;62.03
56582;BME280;42463;52.214;21.238;2023-01-26T10:57:12;100948.21;;;2.69;62.10
56582;BME280;42463;52.214;21.238;2023-01-26T10:59:47;100940.12;;;2.71;62.27
56582;BME280;42463;52.214;21.238;2023-01-26T11:02:23;100935.28;;;2.73;62.06
56582;BME280;42463;52.214;21.238;2023-01-26T11:05:12;100927.87;;;2.74;61.98
56582;BME280;42463;52.214;21.238;2023-01-26T11:07:40;100924.56;;;2.79;62.05
56582;BME280;42463;52.214;21.238;2023-01-26T11:10:28;100922.16;;;2.80;61.53
56582;BME280;42463;52.214;21.238;2023-01-26T11:13:11;100919.11;;;2.84;61.81
56582;BME280;42463;52.214;21.238;2023-01-26T11:15:39;100917.30;;;2.85;61.54
56582;BME280;42463;52.214;21.238;2023-01-26T11:18:31;100915.60;;;2.85;61.44
56582;BME280;42463;52.214;21.238;2023-01-26T11:21:02;100912.55;;;2.88;61.40
56582;BME280;42463;52.214;21.238;2023-01-26T11:23:49;100906.06;;;2.87;61.36
56582;BME280;42463;52.214;21.238;2023-01-26T11:29:33;100902.80;;;2.83;61.01
56582;BME280;42463;52.214;21.238;2023-01-26T11:32:16;100895.34;;;2.77;60.63
56582;BME280;42463;52.214;21.238;2023-01-26T11:35:03;100897.39;;;2.72;60.84
56582;BME280;42463;52.214;21.238;2023-01-26T11:37:44;100890.90;;;2.74;60.94
56582;BME280;42463;52.214;21.238;2023-01-26T11:40:30;100889.41;;;2.77;61.10
56582;BME280;42463;52.214;21.238;2023-01-26T11:47:07;100886.76;;;2.85;60.67
56582;BME280;42463;52.214;21.238;2023-01-26T11:50:03;100883.10;;;2.82;60.51
56582;BME280;42463;52.214;21.238;2023-01-26T11:52:39;100885.05;;;2.75;60.49
56582;BME280;42463;52.214;21.238;2023-01-26T11:55:44;100881.81;;;2.72;60.74
56582;BME280;42463;52.214;21.238;2023-01-26T11:58:31;100878.99;;;2.66;60.87
56582;BME280;42463;52.214;21.238;2023-01-26T12:01:04;100876.73;;;2.63;61.00
56582;BME280;42463;52.214;21.238;2023-01-26T12:03:39;100874.06;;;2.54;60.99
56582;BME280;42463;52.214;21.238;2023-01-26T12:06:37;100871.09;;;2.49;61.00
56582;BME280;42463;52.214;21.238;2023-01-26T12:09:08;100871.92;;;2.51;61.34
56582;BME280;42463;52.214;21.238;2023-01-26T12:11:53;100871.19;;;2.56;61.41
56582;BME280;42463;52.214;21.238;2023-01-26T12:14:24;100865.61;;;2.59;61.46
56582;BME280;42463;52.214;21.238;2023-01-26T12:17:23;100864.14;;;2.64;61.35
56582;BME280;42463;52.214;21.238;2023-01-26T12:20:11;100856.17;;;2.63;61.31
56582;BME280;42463;52.214;21.238;2023-01-26T12:22:59;100855.56;;;2.64;61.24
56582;BME280;42463;52.214;21.238;2023-01-26T12:25:33;100854.61;;;2.67;61.29
56582;BME280;42463;52.214;21.238;2023-01-26T12:28:08;100849.08;;;2.71;61.08
56582;BME280;42463;52.214;21.238;2023-01-26T12:30:52;100851.65;;;2.68;60.78
56582;BME280;42463;52.214;21.238;2023-01-26T12:33:40;100852.81;;;2.65;61.13
56582;BME280;42463;52.214;21.238;2023-01-26T12:36:20;100858.77;;;2.67;61.15
56582;BME280;42463;52.214;21.238;2023-01-26T12:39:13;100857.12;;;2.71;61.37
56582;BME280;42463;52.214;21.238;2023-01-26T12:42:08;100861.60;;;2.74;61.20
56582;BME280;42463;52.214;21.238;2023-01-26T12:44:59;100862.02;;;2.66;60.93
56582;BME280;42463;52.214;21.238;2023-01-26T12:47:36;100862.87;;;2.66;61.43
56582;BME280;42463;52.214;21.238;2023-01-26T12:50:22;100861.13;;;2.68;61.62
56582;BME280;42463;52.214;21.238;2023-01-26T12:53:03;100863.67;;;2.68;61.22
56582;BME280;42463;52.214;21.238;2023-01-26T12:55:40;100864.67;;;2.68;61.50
56582;BME280;42463;52.214;21.238;2023-01-26T12:58:13;100868.47;;;2.73;61.54
56582;BME280;42463;52.214;21.238;2023-01-26T13:00:55;100864.86;;;2.76;61.12
56582;BME280;42463;52.214;21.238;2023-01-26T13:03:31;100858.48;;;2.68;61.14
56582;BME280;42463;52.214;21.238;2023-01-26T13:06:00;100863.33;;;2.66;61.31
56582;BME280;42463;52.214;21.238;2023-01-26T13:08:49;100862.18;;;2.71;61.49
56582;BME280;42463;52.214;21.238;2023-01-26T13:11:47;100850.52;;;2.74;61.33
56582;BME280;42463;52.214;21.238;2023-01-26T13:14:37;100848.17;;;2.72;61.06
56582;BME280;42463;52.214;21.238;2023-01-26T13:17:51;100848.95;;;2.67;60.89
56582;BME280;42463;52.214;21.238;2023-01-26T13:20:40;100851.41;;;2.69;61.20
56582;BME280;42463;52.214;21.238;2023-01-26T13:23:38;100847.27;;;2.74;61.25
56582;BME280;42463;52.214;21.238;2023-01-26T13:26:17;100845.73;;;2.75;61.00
56582;BME280;42463;52.214;21.238;2023-01-26T13:29:30;100841.09;;;2.71;61.07
56582;BME280;42463;52.214;21.238;2023-01-26T13:31:57;100837.77;;;2.73;61.02
56582;BME280;42463;52.214;21.238;2023-01-26T13:34:40;100837.85;;;2.78;60.98
56582;BME280;42463;52.214;21.238;2023-01-26T13:37:13;100841.35;;;2.83;60.98
56582;BME280;42463;52.214;21.238;2023-01-26T13:39:44;100839.11;;;2.86;61.06
56582;BME280;42463;52.214;21.238;2023-01-26T13:42:18;100837.86;;;2.91;60.96
56582;BME280;42463;52.214;21.238;2023-01-26T13:44:51;100836.06;;;2.91;60.95
56582;BME280;42463;52.214;21.238;2023-01-26T13:47:23;100835.08;;;2.93;60.83
56582;BME280;42463;52.214;21.238;2023-01-26T13:49:56;100828.12;;;2.93;60.64